Time;durP1;ratioP1;P1;durP2;ratioP2;P2;SDS_P1;SDS_P2;PMS_P1;PMS_P2;Temp;Humidity;BMP_temperature;BMP_pressure;BME280_temperature;BME280_humidity;BME280_pressure;Samples;Min_cycle;Max_cycle;Signal;HPM_P1;HPM_P2
2023/04/29 00:02:20;;;;;;;43.25;31.38;;;10.30;99.90;;;;;;5096214;28;20039;-33
2023/04/29 00:04:46;;;;;;;43.20;31.35;;;10.30;99.90;;;;;;5095587;28;20576;-34
2023/04/29 00:07:14;;;;;;;37.83;30.23;;;10.30;99.90;;;;;;5095893;28;20109;-34
2023/04/29 00:09:40;;;;;;;46.25;31.52;;;10.30;99.90;;;;;;5096049;28;20044;-34
2023/04/29 00:12:06;;;;;;;41.70;30.83;;;10.30;99.90;;;;;;5089362;28;20068;-33
2023/04/29 00:14:32;;;;;;;45.00;30.75;;;10.20;99.90;;;;;;5095325;28;20059;-34
2023/04/29 00:16:58;;;;;;;42.88;31.55;;;10.20;99.90;;;;;;5087626;28;20039;-34
2023/04/29 00:19:24;;;;;;;43.50;31.50;;;10.10;99.90;;;;;;5095830;28;20035;-33
2023/04/29 00:21:50;;;;;;;46.05;31.58;;;10.00;99.90;;;;;;5093947;28;20054;-34
2023/04/29 00:24:16;;;;;;;46.42;32.35;;;10.00;99.90;;;;;;5084469;28;20032;-33
2023/04/29 00:26:42;;;;;;;47.55;32.53;;;9.90;99.90;;;;;;5093865;28;20089;-33
2023/04/29 00:29:07;;;;;;;46.75;32.28;;;9.90;99.90;;;;;;5092775;28;20063;-34
2023/04/29 00:31:33;;;;;;;45.42;33.70;;;9.90;99.90;;;;;;5092750;28;20036;-34
2023/04/29 00:33:59;;;;;;;52.03;32.65;;;9.90;99.90;;;;;;5090278;28;20401;-34
2023/04/29 00:36:25;;;;;;;43.97;30.83;;;9.90;99.90;;;;;;5092866;28;20489;-33
2023/04/29 00:38:51;;;;;;;42.55;29.75;;;9.90;99.90;;;;;;5092230;28;20236;-33
2023/04/29 00:41:16;;;;;;;43.55;29.50;;;9.90;99.90;;;;;;5080538;28;20036;-34
2023/04/29 00:43:42;;;;;;;37.00;27.70;;;9.90;99.90;;;;;;5092331;28;20028;-34
2023/04/29 00:46:08;;;;;;;41.35;27.95;;;9.90;99.90;;;;;;5091817;28;20071;-34
2023/04/29 00:48:34;;;;;;;39.33;29.27;;;9.90;99.90;;;;;;5086065;28;20139;-33
2023/04/29 00:50:59;;;;;;;47.95;29.80;;;9.90;99.90;;;;;;5085950;28;20508;-33
2023/04/29 00:53:25;;;;;;;40.65;28.83;;;9.90;99.90;;;;;;5090747;28;20038;-33
2023/04/29 00:55:51;;;;;;;38.30;28.33;;;9.90;99.90;;;;;;5072526;28;20040;-33
2023/04/29 00:58:18;;;;;;;40.05;29.50;;;9.90;99.90;;;;;;5088268;28;20044;-33
2023/04/29 01:00:45;;;;;;;39.42;28.95;;;9.90;99.90;;;;;;5087716;28;20046;-34
2023/04/29 01:03:12;;;;;;;37.10;29.08;;;9.90;99.90;;;;;;5083211;28;20515;-34
2023/04/29 01:05:38;;;;;;;39.50;28.88;;;9.90;99.90;;;;;;5091991;28;20036;-33
2023/04/29 01:08:32;;;;;;;37.38;29.60;;;9.90;99.90;;;;;;5091755;28;20138;-33
2023/04/29 01:11:08;;;;;;;40.13;29.98;;;9.80;99.90;;;;;;5089399;28;20389;-34
2023/04/29 01:13:37;;;;;;;40.75;29.50;;;9.90;99.90;;;;;;5091609;28;20032;-33
2023/04/29 01:16:07;;;;;;;40.92;28.10;;;9.90;99.90;;;;;;5085434;28;20117;-34
2023/04/29 01:18:38;;;;;;;42.30;29.50;;;9.90;99.90;;;;;;5092352;28;20101;-34
2023/04/29 01:21:04;;;;;;;42.47;29.63;;;9.90;99.90;;;;;;5093159;28;20058;-33
2023/04/29 01:23:30;;;;;;;41.80;29.55;;;9.90;99.90;;;;;;5086679;28;20042;-34
2023/04/29 01:25:56;;;;;;;46.25;29.60;;;9.80;99.90;;;;;;5090131;28;20036;-32
2023/04/29 01:28:47;;;;;;;42.20;27.95;;;9.80;99.90;;;;;;5092270;28;20040;-34
2023/04/29 01:31:19;;;;;;;37.97;27.95;;;9.90;99.90;;;;;;5106977;28;20046;-34
2023/04/29 01:34:03;;;;;;;38.65;27.35;;;9.80;99.90;;;;;;5091118;28;20040;-34
2023/04/29 01:36:44;;;;;;;37.97;27.20;;;9.80;99.90;;;;;;5088954;28;20032;-34
2023/04/29 01:39:15;;;;;;;37.38;26.63;;;9.90;99.90;;;;;;5091244;28;20063;-34
2023/04/29 01:41:57;;;;;;;37.78;27.08;;;9.80;99.90;;;;;;5091469;28;20044;-34
2023/04/29 01:44:27;;;;;;;37.20;26.85;;;9.80;99.90;;;;;;5091242;28;20494;-34
2023/04/29 01:46:55;;;;;;;38.40;26.67;;;9.80;99.90;;;;;;5081466;28;20029;-34
2023/04/29 01:49:27;;;;;;;37.30;27.10;;;9.80;99.90;;;;;;5091047;28;20114;-34
2023/04/29 01:51:53;;;;;;;37.95;27.95;;;9.90;99.90;;;;;;5085914;28;20504;-34
2023/04/29 01:54:21;;;;;;;40.63;28.08;;;9.80;99.90;;;;;;5090765;28;20055;-34
2023/04/29 01:56:46;;;;;;;37.70;27.00;;;9.80;99.90;;;;;;5091022;28;20051;-34
2023/04/29 01:59:12;;;;;;;41.63;29.60;;;9.80;99.90;;;;;;5091108;28;20040;-34
2023/04/29 02:01:38;;;;;;;38.63;27.00;;;9.80;99.90;;;;;;5073849;28;20048;-34
2023/04/29 02:04:04;;;;;;;40.85;28.17;;;9.80;99.90;;;;;;5088840;28;20036;-34
2023/04/29 02:06:31;;;;;;;39.78;27.75;;;9.80;99.90;;;;;;5090896;28;20073;-34
2023/04/29 02:08:57;;;;;;;39.47;27.58;;;9.80;99.90;;;;;;5090141;28;20074;-34
2023/04/29 02:11:23;;;;;;;42.60;29.10;;;9.80;99.90;;;;;;5091969;28;20040;-33
2023/04/29 02:13:48;;;;;;;43.83;28.77;;;9.80;99.90;;;;;;5085164;28;20559;-34
2023/04/29 02:16:15;;;;;;;41.72;28.73;;;9.80;99.90;;;;;;5090081;28;20379;-34
2023/04/29 02:18:41;;;;;;;40.55;29.58;;;9.70;99.90;;;;;;5090719;28;20409;-34
2023/04/29 02:21:07;;;;;;;48.03;31.50;;;9.70;99.90;;;;;;5088705;28;20478;-34
2023/04/29 02:23:34;;;;;;;51.35;30.75;;;9.80;99.90;;;;;;5090137;28;20469;-34
2023/04/29 02:26:00;;;;;;;45.88;29.45;;;9.70;99.90;;;;;;5089867;28;20072;-34
2023/04/29 02:28:26;;;;;;;48.42;30.15;;;9.70;99.90;;;;;;5090673;28;20036;-34
2023/04/29 02:30:53;;;;;;;48.30;31.77;;;9.70;99.90;;;;;;5090817;28;20039;-34
2023/04/29 02:33:19;;;;;;;49.67;31.88;;;9.70;99.90;;;;;;5089703;28;20512;-34
2023/04/29 02:35:44;;;;;;;46.28;30.63;;;9.70;99.90;;;;;;5086289;28;20032;-34
2023/04/29 02:38:10;;;;;;;46.75;30.63;;;9.60;99.90;;;;;;5089420;28;20036;-34
2023/04/29 02:40:44;;;;;;;48.92;31.58;;;9.60;99.90;;;;;;5090472;28;20114;-34
2023/04/29 02:43:10;;;;;;;50.50;32.28;;;9.70;99.90;;;;;;5090119;28;20051;-33
2023/04/29 02:45:37;;;;;;;47.05;29.33;;;9.60;99.90;;;;;;5089336;28;20028;-34
2023/04/29 02:48:04;;;;;;;45.70;31.23;;;9.60;99.90;;;;;;5089540;28;20067;-33
2023/04/29 02:50:29;;;;;;;47.97;28.85;;;9.60;99.90;;;;;;5073181;28;20097;-33
2023/04/29 02:52:56;;;;;;;42.58;28.08;;;9.60;99.90;;;;;;5090392;28;20416;-34
2023/04/29 02:55:22;;;;;;;45.97;28.23;;;9.60;99.90;;;;;;5090102;28;20083;-34
2023/04/29 02:57:47;;;;;;;45.83;28.10;;;9.60;99.90;;;;;;5090257;28;20134;-34
2023/04/29 03:00:13;;;;;;;46.10;28.85;;;9.60;99.90;;;;;;5089834;28;20481;-33
2023/04/29 03:02:39;;;;;;;47.50;26.67;;;9.60;99.90;;;;;;5089788;28;20050;-34
2023/04/29 03:05:05;;;;;;;41.05;26.95;;;9.60;99.90;;;;;;5087321;28;20039;-34
2023/04/29 03:07:31;;;;;;;39.45;26.60;;;9.50;99.90;;;;;;5072657;28;20040;-34
2023/04/29 03:09:57;;;;;;;38.03;25.80;;;9.50;99.90;;;;;;5088304;28;20478;-34
2023/04/29 03:12:23;;;;;;;37.35;25.83;;;9.50;99.90;;;;;;5089451;28;20024;-34
2023/04/29 03:14:49;;;;;;;39.67;25.20;;;9.50;99.90;;;;;;5089748;28;20042;-34
2023/04/29 03:17:14;;;;;;;33.38;23.52;;;9.50;99.90;;;;;;5089761;28;20170;-33
2023/04/29 03:19:40;;;;;;;32.83;24.90;;;9.50;99.90;;;;;;5085259;28;20539;-34
2023/04/29 03:22:10;;;;;;;38.42;24.35;;;9.50;99.90;;;;;;5087698;28;20433;-34
2023/04/29 03:24:37;;;;;;;33.30;23.40;;;9.40;99.90;;;;;;5089138;28;20032;-34
2023/04/29 03:27:03;;;;;;;38.40;24.40;;;9.50;99.90;;;;;;5085206;28;20536;-34
2023/04/29 03:29:30;;;;;;;32.03;22.25;;;9.40;99.90;;;;;;5089772;28;20032;-34
2023/04/29 03:31:56;;;;;;;37.58;24.15;;;9.40;99.90;;;;;;5085173;28;20032;-34
2023/04/29 03:34:22;;;;;;;38.58;25.58;;;9.50;99.90;;;;;;5089141;28;20074;-34
2023/04/29 03:36:47;;;;;;;39.03;22.95;;;9.40;99.90;;;;;;5085198;28;20058;-34
2023/04/29 03:39:13;;;;;;;33.03;22.40;;;9.40;99.90;;;;;;5088854;28;20036;-34
2023/04/29 03:41:39;;;;;;;32.08;22.63;;;9.40;99.90;;;;;;5089992;28;20044;-34
2023/04/29 03:44:05;;;;;;;32.30;22.17;;;9.40;99.90;;;;;;5087869;28;20114;-34
2023/04/29 03:46:31;;;;;;;38.15;23.92;;;9.40;99.90;;;;;;5089277;28;20070;-34
2023/04/29 03:48:57;;;;;;;35.67;21.67;;;9.30;99.90;;;;;;5088471;28;20032;-34
2023/04/29 03:51:26;;;;;;;31.98;21.25;;;9.30;99.90;;;;;;5089506;28;20044;-34
2023/04/29 03:53:53;;;;;;;35.38;21.73;;;9.30;99.90;;;;;;5084891;28;20043;-34
2023/04/29 03:56:19;;;;;;;32.45;22.02;;;9.30;99.90;;;;;;5089746;28;20100;-33
2023/04/29 03:58:45;;;;;;;34.03;21.38;;;9.30;99.90;;;;;;5093501;28;20032;-34
2023/04/29 04:01:11;;;;;;;33.35;20.80;;;9.30;99.90;;;;;;5093294;28;20527;-34
2023/04/29 04:03:37;;;;;;;35.35;22.08;;;9.20;99.90;;;;;;5092553;28;20076;-34
2023/04/29 04:06:03;;;;;;;31.50;21.48;;;9.20;99.90;;;;;;5086533;28;20565;-34
2023/04/29 04:08:29;;;;;;;30.48;20.67;;;9.20;99.90;;;;;;5088016;28;20094;-34
2023/04/29 04:11:01;;;;;;;29.73;20.80;;;9.20;99.90;;;;;;5084753;28;20119;-33
2023/04/29 04:13:27;;;;;;;31.45;21.38;;;9.20;99.90;;;;;;5092734;28;20157;-34
2023/04/29 04:15:53;;;;;;;33.15;22.90;;;9.20;99.90;;;;;;5090919;28;20478;-34
2023/04/29 04:18:19;;;;;;;33.53;21.88;;;9.30;99.90;;;;;;5092830;28;20032;-33
2023/04/29 04:20:44;;;;;;;34.28;21.83;;;9.20;99.90;;;;;;5092863;28;20142;-34
2023/04/29 04:23:10;;;;;;;34.33;21.58;;;9.20;99.90;;;;;;5094158;28;20032;-34
2023/04/29 04:25:36;;;;;;;33.42;21.00;;;9.20;99.90;;;;;;5092269;28;20035;-34
2023/04/29 04:28:01;;;;;;;32.50;20.75;;;9.20;99.90;;;;;;5092910;28;20039;-33
2023/04/29 04:30:27;;;;;;;33.85;22.33;;;9.20;99.90;;;;;;5092889;28;20119;-33
2023/04/29 04:32:53;;;;;;;31.85;20.85;;;9.20;99.90;;;;;;5092272;28;20063;-33
2023/04/29 04:35:18;;;;;;;36.67;21.45;;;9.20;99.90;;;;;;5092630;28;20047;-33
2023/04/29 04:37:44;;;;;;;32.83;21.02;;;9.20;99.90;;;;;;5075459;28;20548;-33
2023/04/29 04:40:11;;;;;;;27.88;20.70;;;9.20;99.90;;;;;;5092813;28;20051;-33
2023/04/29 04:42:36;;;;;;;32.33;21.05;;;9.20;99.90;;;;;;5086640;28;20482;-34
2023/04/29 04:45:02;;;;;;;29.60;20.70;;;9.20;99.90;;;;;;5088409;28;20047;-34
2023/04/29 04:47:28;;;;;;;31.55;21.85;;;9.20;99.90;;;;;;5092122;28;20039;-33
2023/04/29 04:49:54;;;;;;;32.08;21.17;;;9.20;99.90;;;;;;5092177;28;20028;-34
2023/04/29 04:52:20;;;;;;;32.38;20.67;;;9.20;99.90;;;;;;5088229;28;20446;-34
2023/04/29 04:54:46;;;;;;;30.85;21.48;;;9.20;99.90;;;;;;5084170;28;20634;-37
2023/04/29 04:57:12;;;;;;;33.50;21.90;;;9.20;99.90;;;;;;5092117;28;20040;-35
2023/04/29 04:59:38;;;;;;;35.72;22.38;;;9.20;99.90;;;;;;5092130;28;20047;-34
2023/04/29 05:02:04;;;;;;;32.63;21.95;;;9.20;99.90;;;;;;5081957;28;20032;-34
2023/04/29 05:04:30;;;;;;;31.23;20.67;;;9.20;99.90;;;;;;5089215;28;20481;-35
2023/04/29 05:06:56;;;;;;;29.17;20.48;;;9.20;99.90;;;;;;5085856;28;20139;-36
2023/04/29 05:09:21;;;;;;;33.30;21.10;;;9.20;99.90;;;;;;5087056;28;20032;-34
2023/04/29 05:11:47;;;;;;;37.15;21.85;;;9.20;99.90;;;;;;5087051;28;20397;-34
2023/04/29 05:14:13;;;;;;;31.80;21.52;;;9.20;99.90;;;;;;5090645;28;20094;-35
2023/04/29 05:16:38;;;;;;;32.85;21.02;;;9.20;99.90;;;;;;5084417;28;20099;-35
2023/04/29 05:19:04;;;;;;;35.08;22.35;;;9.20;99.90;;;;;;5089661;28;20048;-34
2023/04/29 05:21:30;;;;;;;30.85;20.52;;;9.20;99.90;;;;;;5091671;28;20036;-37
2023/04/29 05:23:56;;;;;;;33.30;20.83;;;9.20;99.90;;;;;;5085822;28;20520;-34
2023/04/29 05:26:22;;;;;;;32.08;20.38;;;9.20;99.90;;;;;;5088849;28;20024;-37
2023/04/29 05:28:48;;;;;;;31.27;20.42;;;9.20;99.90;;;;;;5085345;28;20081;-37
2023/04/29 05:31:14;;;;;;;30.92;21.20;;;9.20;99.90;;;;;;5091193;28;20064;-35
2023/04/29 05:33:40;;;;;;;31.58;20.23;;;9.20;99.90;;;;;;5091238;28;20040;-35
2023/04/29 05:36:06;;;;;;;34.17;20.95;;;9.20;99.90;;;;;;5089818;28;20040;-35
2023/04/29 05:38:32;;;;;;;32.72;20.40;;;9.20;99.90;;;;;;5092453;28;20046;-34
2023/04/29 05:40:58;;;;;;;25.52;19.15;;;9.30;99.90;;;;;;5091236;28;20517;-35
2023/04/29 05:43:24;;;;;;;31.48;19.33;;;9.30;99.90;;;;;;5091050;28;20047;-37
2023/04/29 05:45:49;;;;;;;27.17;18.35;;;9.30;99.90;;;;;;5089307;28;20424;-36
2023/04/29 05:48:16;;;;;;;27.38;18.13;;;9.30;99.90;;;;;;5091060;28;20043;-34
2023/04/29 05:50:41;;;;;;;27.75;18.80;;;9.30;99.90;;;;;;5088458;28;20040;-37
2023/04/29 05:53:07;;;;;;;28.77;18.60;;;9.40;99.90;;;;;;5085554;28;20042;-34
2023/04/29 05:55:33;;;;;;;30.38;18.52;;;9.40;99.90;;;;;;5090028;28;20039;-34
2023/04/29 05:57:58;;;;;;;28.52;17.63;;;9.40;99.90;;;;;;5088648;28;20039;-35
2023/04/29 06:00:24;;;;;;;28.77;18.45;;;9.50;99.90;;;;;;5089511;28;20126;-34
2023/04/29 06:02:50;;;;;;;25.35;17.35;;;9.50;99.90;;;;;;5072774;28;20039;-36
2023/04/29 06:05:16;;;;;;;28.52;17.48;;;9.50;99.90;;;;;;5085805;28;20482;-34
2023/04/29 06:07:42;;;;;;;23.67;16.88;;;9.50;99.90;;;;;;5070154;28;20037;-34
2023/04/29 06:10:09;;;;;;;30.80;17.60;;;9.50;99.90;;;;;;5088180;28;20039;-34
2023/04/29 06:12:35;;;;;;;25.02;16.65;;;9.60;99.90;;;;;;5088882;28;20036;-36
2023/04/29 06:15:01;;;;;;;21.33;15.23;;;9.60;99.90;;;;;;5089921;28;20043;-33
2023/04/29 06:17:29;;;;;;;20.77;15.20;;;9.60;99.90;;;;;;5093630;28;20386;-33
2023/04/29 06:19:55;;;;;;;27.27;16.85;;;9.70;99.90;;;;;;5111850;28;20039;-33
2023/04/29 06:22:21;;;;;;;23.33;15.00;;;9.70;99.90;;;;;;5111950;28;20046;-33
2023/04/29 06:24:48;;;;;;;25.98;15.63;;;9.80;99.90;;;;;;5111854;28;20028;-33
2023/04/29 06:27:15;;;;;;;25.38;15.13;;;9.80;99.90;;;;;;5099224;28;20474;-33
2023/04/29 06:29:41;;;;;;;22.50;15.27;;;9.80;99.90;;;;;;5074738;28;20071;-33
2023/04/29 06:32:07;;;;;;;22.80;15.20;;;9.90;99.90;;;;;;5091330;28;20044;-36
2023/04/29 06:34:33;;;;;;;24.25;15.02;;;10.00;99.90;;;;;;5091455;28;20050;-33
2023/04/29 06:36:59;;;;;;;23.00;14.93;;;10.00;99.90;;;;;;5091103;28;20047;-33
2023/04/29 06:39:25;;;;;;;20.75;14.73;;;10.00;99.90;;;;;;5074116;28;20040;-33
2023/04/29 06:41:51;;;;;;;21.38;14.68;;;10.10;99.90;;;;;;5091288;28;20061;-33
2023/04/29 06:44:17;;;;;;;20.50;14.35;;;10.10;99.90;;;;;;5091346;28;20074;-34
2023/04/29 06:46:43;;;;;;;21.15;14.35;;;10.20;99.90;;;;;;5090826;28;20485;-33
2023/04/29 06:49:10;;;;;;;24.58;14.40;;;10.20;99.90;;;;;;5090944;28;20032;-33
2023/04/29 06:51:41;;;;;;;22.17;14.40;;;10.30;99.90;;;;;;5091271;28;20436;-33
2023/04/29 06:54:07;;;;;;;24.85;14.38;;;10.30;99.90;;;;;;5091123;28;20036;-33
2023/04/29 06:56:33;;;;;;;19.17;13.98;;;10.40;99.90;;;;;;5090930;28;20036;-34
2023/04/29 06:58:58;;;;;;;20.55;14.38;;;10.60;99.90;;;;;;5090853;28;20040;-33
2023/04/29 07:01:24;;;;;;;17.40;13.32;;;10.60;99.90;;;;;;5090748;28;20040;-33
2023/04/29 07:03:50;;;;;;;17.63;13.45;;;10.70;99.90;;;;;;5090932;28;20040;-33
2023/04/29 07:06:15;;;;;;;18.40;12.68;;;10.80;99.90;;;;;;5090715;28;20032;-33
2023/04/29 07:08:41;;;;;;;20.15;13.20;;;10.80;99.90;;;;;;5092310;28;20169;-33
2023/04/29 07:11:07;;;;;;;18.48;13.32;;;10.90;99.90;;;;;;5101061;28;20042;-34
2023/04/29 07:13:32;;;;;;;16.73;12.70;;;11.00;99.90;;;;;;5090891;28;20115;-33
2023/04/29 07:15:59;;;;;;;17.75;12.80;;;11.10;99.90;;;;;;5091073;28;20176;-33
2023/04/29 07:18:25;;;;;;;16.33;11.85;;;11.20;99.90;;;;;;5091363;28;20485;-33
2023/04/29 07:20:51;;;;;;;15.55;11.68;;;11.30;99.90;;;;;;5090407;28;20050;-33
2023/04/29 07:23:17;;;;;;;19.70;12.80;;;11.30;99.90;;;;;;5090767;28;20541;-33
2023/04/29 07:25:43;;;;;;;18.65;12.88;;;11.50;99.90;;;;;;5090733;28;20032;-33
2023/04/29 07:28:09;;;;;;;16.35;12.18;;;11.60;99.90;;;;;;5090747;28;20071;-33
2023/04/29 07:30:35;;;;;;;15.27;11.48;;;11.80;99.90;;;;;;5090844;28;20478;-33
2023/04/29 07:33:01;;;;;;;14.60;10.98;;;11.90;99.90;;;;;;5094717;28;20113;-33
2023/04/29 07:35:27;;;;;;;15.68;11.60;;;12.00;99.90;;;;;;5094745;28;20032;-33
2023/04/29 07:37:53;;;;;;;14.30;10.43;;;12.10;99.90;;;;;;5094495;28;20507;-33
2023/04/29 07:40:18;;;;;;;14.85;10.55;;;12.30;99.90;;;;;;5094777;28;20036;-34
2023/04/29 07:42:44;;;;;;;18.23;11.27;;;12.40;99.90;;;;;;5114078;28;20485;-33
2023/04/29 07:45:12;;;;;;;15.32;11.32;;;12.50;99.90;;;;;;5115087;28;20035;-34
2023/04/29 07:47:38;;;;;;;14.50;11.15;;;12.60;99.90;;;;;;5114647;28;20047;-33
2023/04/29 07:50:04;;;;;;;14.73;10.02;;;12.70;99.90;;;;;;5115021;28;20497;-33
2023/04/29 07:52:30;;;;;;;14.57;10.93;;;12.80;99.90;;;;;;5100285;28;20054;-33
2023/04/29 07:54:55;;;;;;;14.55;9.80;;;12.80;99.90;;;;;;5094039;28;20044;-34
2023/04/29 07:57:21;;;;;;;16.23;10.23;;;12.90;99.90;;;;;;5077102;28;20128;-33
2023/04/29 07:59:54;;;;;;;15.35;11.07;;;12.90;99.90;;;;;;5094313;28;20043;-34
2023/04/29 08:02:20;;;;;;;13.93;10.48;;;13.10;99.90;;;;;;5094081;28;20105;-34
2023/04/29 08:04:46;;;;;;;16.52;10.25;;;13.40;99.90;;;;;;5094344;28;20480;-33
2023/04/29 08:07:12;;;;;;;14.93;10.25;;;13.70;99.90;;;;;;5097180;28;20063;-33
2023/04/29 08:09:37;;;;;;;12.30;9.68;;;13.90;99.90;;;;;;5114281;28;20122;-33
2023/04/29 08:12:04;;;;;;;13.13;9.77;;;13.90;99.90;;;;;;5114069;28;20035;-34
2023/04/29 08:14:30;;;;;;;15.93;9.77;;;13.90;99.90;;;;;;5114331;28;20134;-34
2023/04/29 08:16:55;;;;;;;15.80;9.95;;;14.10;99.90;;;;;;5096871;28;20083;-34
2023/04/29 08:19:21;;;;;;;13.80;9.57;;;14.40;99.90;;;;;;5114197;28;20388;-34
2023/04/29 08:21:47;;;;;;;12.40;9.40;;;14.60;99.90;;;;;;5114076;28;20399;-33
2023/04/29 08:24:13;;;;;;;11.88;9.82;;;14.90;99.90;;;;;;5097074;28;20066;-34
2023/04/29 08:26:41;;;;;;;13.95;9.95;;;15.10;99.90;;;;;;5113546;28;20057;-34
2023/04/29 08:29:07;;;;;;;13.18;9.57;;;15.30;99.90;;;;;;5115036;28;20042;-34
2023/04/29 08:31:33;;;;;;;13.57;9.50;;;15.60;99.90;;;;;;5113296;28;20036;-33
2023/04/29 08:33:59;;;;;;;14.57;9.18;;;15.80;99.90;;;;;;5114765;28;20071;-35
2023/04/29 08:36:27;;;;;;;11.30;8.15;;;15.90;99.90;;;;;;5112190;28;20035;-34
2023/04/29 08:38:53;;;;;;;10.73;8.32;;;16.00;99.90;;;;;;5113925;28;20119;-34
2023/04/29 08:41:19;;;;;;;12.23;8.70;;;16.20;99.90;;;;;;5114042;28;20426;-34
2023/04/29 08:43:45;;;;;;;8.75;7.80;;;16.30;99.90;;;;;;5098098;28;20043;-33
2023/04/29 08:46:11;;;;;;;12.70;8.90;;;16.40;99.90;;;;;;5111630;28;20485;-33
2023/04/29 08:48:39;;;;;;;9.60;8.00;;;16.40;99.90;;;;;;5093673;28;20101;-34
2023/04/29 08:51:05;;;;;;;12.07;7.90;;;16.70;99.90;;;;;;5093597;28;20036;-34
2023/04/29 08:53:31;;;;;;;11.15;8.63;;;16.90;99.90;;;;;;5093285;28;20048;-35
2023/04/29 08:56:07;;;;;;;10.07;8.50;;;16.80;99.90;;;;;;5093191;28;20043;-34
2023/04/29 08:58:35;;;;;;;13.73;8.88;;;16.80;99.90;;;;;;5092394;28;20044;-34
2023/04/29 09:01:01;;;;;;;11.43;8.85;;;16.80;99.90;;;;;;5105466;28;20070;-34
2023/04/29 09:04:03;;;;;;;8.77;7.72;;;17.00;99.90;;;;;;5112408;28;20178;-37
2023/04/29 09:06:32;;;;;;;10.50;7.90;;;17.10;99.90;;;;;;5091936;28;20063;-34
2023/04/29 09:08:59;;;;;;;9.32;7.75;;;16.90;99.90;;;;;;5092309;28;20048;-34
2023/04/29 09:11:27;;;;;;;10.80;8.27;;;16.70;99.90;;;;;;5092535;28;20043;-35
2023/04/29 09:13:59;;;;;;;10.65;8.30;;;16.40;99.90;;;;;;5106842;28;20067;-34
2023/04/29 09:16:25;;;;;;;13.32;8.45;;;16.10;99.90;;;;;;5100444;28;20067;-34
2023/04/29 09:18:51;;;;;;;10.90;7.72;;;15.90;99.90;;;;;;5105490;28;20074;-35
2023/04/29 09:21:26;;;;;;;12.35;8.05;;;15.80;99.90;;;;;;5091709;28;20389;-34
2023/04/29 09:23:56;;;;;;;10.82;8.43;;;15.70;99.90;;;;;;5092395;28;20461;-35
2023/04/29 09:26:23;;;;;;;9.35;7.45;;;15.70;99.90;;;;;;5091986;28;20040;-34
2023/04/29 09:29:08;;;;;;;9.95;6.90;;;15.60;99.90;;;;;;5092767;28;20032;-34
2023/04/29 09:31:36;;;;;;;10.70;6.50;;;15.40;99.90;;;;;;5092683;28;20040;-34
2023/04/29 09:34:01;;;;;;;8.60;7.70;;;15.30;99.90;;;;;;5092601;28;20486;-34
2023/04/29 09:36:49;;;;;;;11.15;7.60;;;15.80;99.90;;;;;;5096087;28;20028;-34
2023/04/29 09:39:21;;;;;;;10.30;7.47;;;16.30;99.90;;;;;;5072326;28;20090;-34
2023/04/29 09:41:52;;;;;;;7.65;6.95;;;17.10;99.90;;;;;;5082577;28;20028;-34
2023/04/29 09:44:27;;;;;;;9.77;7.68;;;17.80;99.90;;;;;;5086277;28;20043;-34
2023/04/29 09:47:02;;;;;;;8.25;6.93;;;18.30;99.90;;;;;;5100707;28;20477;-35
2023/04/29 09:49:41;;;;;;;7.78;6.43;;;18.80;99.90;;;;;;5091937;28;20517;-34
2023/04/29 09:52:09;;;;;;;7.43;6.30;;;19.30;99.90;;;;;;5092235;28;20562;-34
2023/04/29 09:54:37;;;;;;;8.00;6.63;;;20.10;99.90;;;;;;5090857;28;20035;-34
2023/04/29 09:57:06;;;;;;;8.10;6.30;;;20.60;99.90;;;;;;5091533;28;20584;-34
2023/04/29 09:59:34;;;;;;;7.97;6.97;;;20.70;99.90;;;;;;5091215;28;20528;-34
2023/04/29 10:02:03;;;;;;;8.52;7.65;;;20.80;99.90;;;;;;5091052;28;20082;-34
2023/04/29 10:04:33;;;;;;;11.32;6.90;;;20.40;99.90;;;;;;5091351;28;20036;-34
2023/04/29 10:07:02;;;;;;;7.82;7.03;;;20.10;99.90;;;;;;5096904;28;20089;-34
2023/04/29 10:09:29;;;;;;;7.88;7.07;;;19.50;99.90;;;;;;5090677;28;20032;-35
2023/04/29 10:11:55;;;;;;;6.88;6.20;;;19.10;99.90;;;;;;5105996;28;20477;-34
2023/04/29 10:14:22;;;;;;;6.88;5.63;;;18.80;99.90;;;;;;5083051;28;20044;-34
2023/04/29 10:16:53;;;;;;;7.47;6.47;;;19.20;99.90;;;;;;5112934;28;20071;-34
2023/04/29 10:19:32;;;;;;;8.40;6.53;;;19.60;99.90;;;;;;5092892;28;20040;-34
2023/04/29 10:22:03;;;;;;;9.05;6.82;;;19.90;99.90;;;;;;5105397;28;20040;-35
2023/04/29 10:24:31;;;;;;;9.05;6.93;;;20.30;99.90;;;;;;5107594;28;20355;-34
2023/04/29 10:26:58;;;;;;;7.72;6.53;;;20.40;99.90;;;;;;5074792;28;20040;-34
2023/04/29 10:29:27;;;;;;;8.50;6.90;;;20.60;99.90;;;;;;5105828;28;20070;-34
2023/04/29 10:31:54;;;;;;;7.15;6.38;;;20.60;99.90;;;;;;5091503;28;20434;-34
2023/04/29 10:34:22;;;;;;;7.93;6.75;;;20.20;99.90;;;;;;5107641;28;20043;-36
2023/04/29 10:36:48;;;;;;;7.35;6.65;;;19.80;99.50;;;;;;5111801;28;20039;-34
2023/04/29 10:39:54;;;;;;;8.57;7.15;;;20.20;99.90;;;;;;5109961;28;20071;-34
2023/04/29 10:42:39;;;;;;;7.20;6.50;;;20.40;92.90;;;;;;5108725;28;20039;-34
2023/04/29 10:45:20;;;;;;;7.53;6.10;;;20.10;90.60;;;;;;5091294;28;20039;-34
2023/04/29 10:48:01;;;;;;;7.70;6.22;;;19.80;84.40;;;;;;5110747;28;20115;-34
2023/04/29 10:50:28;;;;;;;9.18;7.07;;;19.50;84.60;;;;;;5111316;28;20067;-35
2023/04/29 10:52:55;;;;;;;8.27;5.65;;;19.50;99.90;;;;;;5102649;28;20381;-35
2023/04/29 10:55:24;;;;;;;8.23;6.15;;;20.20;99.00;;;;;;5090763;28;20418;-35
2023/04/29 10:57:57;;;;;;;8.43;6.28;;;20.80;91.70;;;;;;5091085;28;20051;-35
2023/04/29 11:00:28;;;;;;;5.80;5.22;;;21.00;72.60;;;;;;5102095;28;20089;-34
2023/04/29 11:02:59;;;;;;;6.80;5.97;;;20.80;72.50;;;;;;5090141;28;20119;-35
2023/04/29 11:05:33;;;;;;;7.60;5.80;;;20.30;68.80;;;;;;5089584;28;20048;-35
2023/04/29 11:08:15;;;;;;;8.85;6.00;;;20.30;68.90;;;;;;5080682;28;20490;-35
2023/04/29 11:10:42;;;;;;;6.35;5.75;;;21.00;84.70;;;;;;5069459;28;20127;-35
2023/04/29 11:13:27;;;;;;;7.70;6.90;;;21.00;78.00;;;;;;5090134;28;20112;-35
2023/04/29 11:16:02;;;;;;;7.38;5.70;;;20.90;66.00;;;;;;5070191;28;20123;-35
2023/04/29 11:18:28;;;;;;;5.80;5.13;;;20.80;69.20;;;;;;5082829;28;20036;-35
2023/04/29 11:21:06;;;;;;;7.80;5.80;;;21.30;67.60;;;;;;5090410;28;20040;-35
2023/04/29 11:23:36;;;;;;;5.32;4.82;;;21.30;66.40;;;;;;5090396;28;20044;-37
2023/04/29 11:26:02;;;;;;;6.25;4.90;;;22.00;65.80;;;;;;5091697;28;20040;-36
2023/04/29 11:28:30;;;;;;;6.75;5.88;;;22.20;61.70;;;;;;5090092;28;20115;-36
2023/04/29 11:30:56;;;;;;;6.18;5.57;;;21.90;59.90;;;;;;5098318;28;20032;-38
2023/04/29 11:33:22;;;;;;;7.35;5.45;;;21.50;59.40;;;;;;5108249;28;20089;-37
2023/04/29 11:35:48;;;;;;;6.03;5.30;;;21.00;58.80;;;;;;5097575;28;20551;-36
2023/04/29 11:38:14;;;;;;;9.07;5.10;;;21.10;60.10;;;;;;5102100;28;20039;-36
2023/04/29 11:40:50;;;;;;;5.65;5.05;;;21.50;60.80;;;;;;5091293;28;20401;-36
2023/04/29 11:43:17;;;;;;;6.88;5.00;;;22.10;59.40;;;;;;5093638;28;20070;-38
2023/04/29 11:45:46;;;;;;;5.43;4.00;;;22.70;59.20;;;;;;5101805;28;20542;-37
2023/04/29 11:48:19;;;;;;;6.25;4.25;;;23.40;57.00;;;;;;5093977;28;20035;-36
2023/04/29 11:50:46;;;;;;;;;;;23.40;55.10;;;;;;5111275;28;20036;-37
2023/04/29 11:53:12;;;;;;;6.72;4.75;;;23.40;53.10;;;;;;5093020;28;19920;-36
2023/04/29 11:55:38;;;;;;;5.57;4.70;;;23.90;55.10;;;;;;5102333;28;20397;-36
2023/04/29 11:58:04;;;;;;;8.07;4.78;;;24.50;54.50;;;;;;5090800;28;20127;-38
2023/04/29 12:00:30;;;;;;;5.35;4.85;;;24.40;52.60;;;;;;5091369;28;20485;-37
2023/04/29 12:02:57;;;;;;;5.65;4.68;;;24.50;51.20;;;;;;5074907;28;20094;-39
2023/04/29 12:05:26;;;;;;;7.18;4.63;;;24.80;51.20;;;;;;5094820;28;20105;-37
2023/04/29 12:07:54;;;;;;;5.97;5.38;;;25.00;50.00;;;;;;5091298;28;20062;-39
2023/04/29 12:10:22;;;;;;;5.78;4.90;;;25.30;50.50;;;;;;5086131;28;20036;-40
2023/04/29 12:12:48;;;;;;;5.55;4.78;;;24.90;50.60;;;;;;5087710;28;20082;-40
2023/04/29 12:15:14;;;;;;;6.03;4.72;;;25.10;51.00;;;;;;5085987;28;20040;-41
2023/04/29 12:17:42;;;;;;;6.18;4.97;;;25.00;49.80;;;;;;5092161;28;20035;-36
2023/04/29 12:20:09;;;;;;;6.07;5.00;;;25.30;49.50;;;;;;5094539;28;20044;-35
2023/04/29 12:22:35;;;;;;;6.45;5.20;;;25.40;49.30;;;;;;5094579;28;20440;-35
2023/04/29 12:25:05;;;;;;;6.45;4.90;;;25.10;47.70;;;;;;5094812;28;20048;-36
2023/04/29 12:27:35;;;;;;;6.10;4.63;;;25.50;48.10;;;;;;5094039;28;20044;-35
2023/04/29 12:30:01;;;;;;;5.47;4.97;;;25.70;48.10;;;;;;5094441;28;20158;-36
2023/04/29 12:32:27;;;;;;;5.68;4.70;;;25.30;45.80;;;;;;5095586;28;20043;-35
2023/04/29 12:34:54;;;;;;;6.20;4.72;;;25.30;46.40;;;;;;5094101;28;20040;-35
2023/04/29 12:37:22;;;;;;;6.03;4.72;;;25.80;46.40;;;;;;5093649;28;20109;-36
2023/04/29 12:39:49;;;;;;;6.05;4.38;;;25.40;45.80;;;;;;5098245;28;20124;-36
2023/04/29 12:42:16;;;;;;;6.57;4.53;;;24.80;46.20;;;;;;5093601;28;20594;-34